Phil's Backyard

 Latitude S 29° 46' 26"    Longitude E 151° 07' 14"    Elevation 586 m

:now: :today: :yesterday: :daily data: :this month: :this year: :records: :monthly records:
:gauges: :graphs: :weatherzone: :forum: :dashboard: :webcam:


A Fire Weather Index for personal weather stations

(See below the table for background)
Legend:
Low (0-210)
Very High (490 - 630)

Moderate (210 - 350)
Extreme (630 - 800)

High (350 - 490)
Catastrophic (800+)


Flame  Flame
361.7
Date Temp. (°C) Wind Speed (km/h) Rain (mm) RH Days since Rain pwsFWI
Prediction is active (including today!), values are above red line.
27/09/21 20.0 19.0 0.0 0.32 1 361.8
26/09/21 22.0 20.0 0.2 0.31 0 350.6
25/09/21 24.0 17.0 0.0 0.24 7 372.1
24/09/21 22.0 18.0 0.0 0.31 6 356.2
23/09/21 20.0 10.0 0.0 0.35 5 361.7
22/09/21 19.7 16.0 0.0 0.25 4 394.5
21/09/21 12.3 27.0 0.0 0.35 3 368.1
20/09/21 25.4 19.0 0.0 0.29 2 364.3
19/09/21 25.4 11.0 0.0 0.13 1 313.0
18/09/21 25.4 21.0 0.4 0.47 0 300.8
17/09/21 22.8 19.0 0.0 0.39 5 264.0
16/09/21 21.1 8.0 0.0 0.26 4 275.0
15/09/21 20.1 18.0 0.0 0.44 3 310.5
16/09/21 21.1 10.0 0.0 0.26 2 328.4
15/09/21 19.6 18.0 0.0 0.38 1 346.9
14/09/21 14.9 19.0 0.8 0.53 0 342.8
13/09/21 23.2 21.0 0.0 0.36 8 345.3
12/09/21 25.6 18.0 0.0 0.44 7 343.3
11/09/21 26.2 13.0 0.0 0.25 6 327.4
10/09/21 24.7 13.0 0.0 0.30 5 209.1
09/09/21 23.1 13.0 0.0 0.35 4 151.6
08/09/21 23.1 6.0 0.0 0.27 3 140.6
07/09/21 19.8 19.0 0.0 0.14 2 163.3
06/09/21 18.0 18.0 0.0 0.31 1 185.3
05/09/21 13.6 18.0 5.2 0.69 0 201.0
04/09/21 22.4 14.0 2.6 0.49 0 263.2
03/09/21 22.3 14.0 0.0 0.50 10 331.3
02/09/21 23.7 18.0 0.0 0.54 9 328.1
01/09/21 26.3 10.0 0.0 0.31 8 320.4
31/08/21 24.8 14.0 0.0 0.29 7 299.8
30/08/21 20.9 13.0 0.0 0.24 6 270.0
29/08/21 23.6 18.0 0.0 0.26 5 220.2
28/08/21 17.6 14.0 0.0 0.37 4 141.8
27/08/21 15.7 18.0 0.0 0.35 3 151.4
26/08/21 16.2 11.0 0.0 0.32 2 170.1
25/08/21 14.8 18.0 0.0 0.45 1 191.9
24/08/21 11.1 24.0 2.2 0.68 0 197.1
23/08/21 23.4 23.0 37.2 0.42 0 239.0
22/08/21 24.8 11.0 0.0 0.33 7 257.7
21/08/21 23.9 14.0 0.0 0.26 6 250.2
20/08/21 21.9 16.0 0.0 0.40 5 187.9
19/08/21 20.9 11.0 0.0 0.46 4 173.1
18/08/21 19.0 11.0 0.0 0.45 3 106.3
17/08/21 17.3 16.0 0.0 0.41 2 95.0
16/08/21 19.7 16.0 0.0 0.46 1 98.7
15/08/21 22.4 16.0 3.8 0.37 0 109.6
14/08/21 21.8 14.0 0.2 0.50 0 149.8
13/08/21 20.2 11.0 5.4 0.63 0 158.4
12/08/21 19.8 11.0 0.2 0.68 0 172.5
11/08/21 21.1 14.0 0.0 0.40 8 185.6
10/08/21 20.7 8.0 0.0 0.38 7 169.6
09/08/21 18.0 16.0 0.0 0.53 6 179.2
08/08/21 19.7 13.0 0.0 0.35 5 112.4
07/08/21 18.6 8.0 0.0 0.40 4 107.6
06/08/21 16.7 11.0 0.0 0.49 3 141.9
05/08/21 14.3 18.0 0.0 0.54 2 144.9
04/08/21 12.9 23.0 0.0 0.49 1 158.0
03/08/21 15.9 16.0 10.2 0.67 0 169.6
02/08/21 23.9 18.0 30.6 0.39 0 143.8
01/08/21 24.7 18.0 0.0 0.50 1 152.7

Science background here. Prediction: https://www.yourweather.co.uk/
:now: :today: :yesterday: :daily data: :this month: :this year: :records: :monthly records:
:gauges: :graphs: :weatherzone: :forum: :dashboard: ::
:
fire index: :fwi graphs: :top10: :extremes: :sysinfo:


Page updated daily at 9:00 AM
powered by CumulusMX v3.1.2 (3055) Valid HTML | Valid CSS
this page by Hans Rottier from the Cumulus Forum

Cumulus Top Weather Sites